sensor_id;sensor_type;location;lat;lon;timestamp;pressure;altitude;pressure_sealevel;temperature;humidity
73151;BME280;61354;50.758;6.106;2023-06-04T00:02:13;99555.72;;;12.51;60.59
73151;BME280;61354;50.758;6.106;2023-06-04T00:04:39;99557.09;;;12.41;61.77
73151;BME280;61354;50.758;6.106;2023-06-04T00:07:05;99557.25;;;12.48;61.57
73151;BME280;61354;50.758;6.106;2023-06-04T00:09:30;99559.69;;;12.50;60.84
73151;BME280;61354;50.758;6.106;2023-06-04T00:11:56;99555.63;;;12.47;60.86
73151;BME280;61354;50.758;6.106;2023-06-04T00:14:23;99556.00;;;12.30;61.95
73151;BME280;61354;50.758;6.106;2023-06-04T00:16:49;99551.53;;;12.41;61.98
73151;BME280;61354;50.758;6.106;2023-06-04T00:19:14;99544.06;;;12.29;62.02
73151;BME280;61354;50.758;6.106;2023-06-04T00:21:40;99541.97;;;12.42;63.15
73151;BME280;61354;50.758;6.106;2023-06-04T00:24:06;99536.41;;;12.42;63.28
73151;BME280;61354;50.758;6.106;2023-06-04T00:26:32;99538.13;;;12.31;63.02
73151;BME280;61354;50.758;6.106;2023-06-04T00:28:58;99536.78;;;12.25;62.45
73151;BME280;61354;50.758;6.106;2023-06-04T00:31:23;99533.81;;;12.17;62.88
73151;BME280;61354;50.758;6.106;2023-06-04T00:33:50;99540.28;;;12.22;63.53
73151;BME280;61354;50.758;6.106;2023-06-04T00:36:15;99535.25;;;12.11;63.75
73151;BME280;61354;50.758;6.106;2023-06-04T00:38:41;99534.44;;;11.95;64.67
73151;BME280;61354;50.758;6.106;2023-06-04T00:41:06;99532.53;;;11.83;65.54
73151;BME280;61354;50.758;6.106;2023-06-04T00:43:32;99536.53;;;11.70;66.46
73151;BME280;61354;50.758;6.106;2023-06-04T00:45:59;99530.50;;;11.68;66.75
73151;BME280;61354;50.758;6.106;2023-06-04T00:48:26;99542.44;;;11.68;66.41
73151;BME280;61354;50.758;6.106;2023-06-04T00:50:53;99537.19;;;11.51;67.05
73151;BME280;61354;50.758;6.106;2023-06-04T00:53:24;99538.13;;;11.71;66.78
73151;BME280;61354;50.758;6.106;2023-06-04T00:55:50;99538.50;;;11.69;66.35
73151;BME280;61354;50.758;6.106;2023-06-04T00:58:16;99536.97;;;11.72;66.54
73151;BME280;61354;50.758;6.106;2023-06-04T01:00:43;99540.44;;;11.53;66.26
73151;BME280;61354;50.758;6.106;2023-06-04T01:03:14;99531.06;;;11.74;66.28
73151;BME280;61354;50.758;6.106;2023-06-04T01:08:27;99528.41;;;11.65;66.31
73151;BME280;61354;50.758;6.106;2023-06-04T01:10:54;99533.63;;;11.66;65.94
73151;BME280;61354;50.758;6.106;2023-06-04T01:13:21;99530.81;;;11.51;66.83
73151;BME280;61354;50.758;6.106;2023-06-04T01:15:46;99534.94;;;11.57;67.06
73151;BME280;61354;50.758;6.106;2023-06-04T01:18:15;99524.19;;;11.55;66.29
73151;BME280;61354;50.758;6.106;2023-06-04T01:21:00;99534.88;;;11.53;66.34
73151;BME280;61354;50.758;6.106;2023-06-04T01:23:37;99536.47;;;11.54;66.56
73151;BME280;61354;50.758;6.106;2023-06-04T01:26:09;99535.56;;;11.50;67.41
73151;BME280;61354;50.758;6.106;2023-06-04T01:28:36;99529.78;;;11.43;68.08
73151;BME280;61354;50.758;6.106;2023-06-04T01:31:03;99532.59;;;11.43;67.24
73151;BME280;61354;50.758;6.106;2023-06-04T01:33:29;99531.00;;;11.30;68.24
73151;BME280;61354;50.758;6.106;2023-06-04T01:35:55;99526.03;;;11.23;68.35
73151;BME280;61354;50.758;6.106;2023-06-04T01:38:21;99532.22;;;11.16;68.79
73151;BME280;61354;50.758;6.106;2023-06-04T01:40:47;99535.06;;;11.32;68.55
73151;BME280;61354;50.758;6.106;2023-06-04T01:43:13;99524.28;;;11.31;67.46
73151;BME280;61354;50.758;6.106;2023-06-04T01:45:39;99531.72;;;11.27;67.51
73151;BME280;61354;50.758;6.106;2023-06-04T01:48:05;99534.75;;;11.22;67.60
73151;BME280;61354;50.758;6.106;2023-06-04T01:50:31;99536.09;;;11.28;67.28
73151;BME280;61354;50.758;6.106;2023-06-04T01:52:57;99535.94;;;11.08;68.73
73151;BME280;61354;50.758;6.106;2023-06-04T01:55:23;99543.41;;;10.92;69.80
73151;BME280;61354;50.758;6.106;2023-06-04T01:57:53;99539.25;;;11.26;68.44
73151;BME280;61354;50.758;6.106;2023-06-04T02:00:19;99538.47;;;11.13;68.55
73151;BME280;61354;50.758;6.106;2023-06-04T02:02:45;99540.78;;;11.11;68.95
73151;BME280;61354;50.758;6.106;2023-06-04T02:05:11;99541.97;;;10.98;69.67
73151;BME280;61354;50.758;6.106;2023-06-04T02:07:38;99536.44;;;10.98;69.21
73151;BME280;61354;50.758;6.106;2023-06-04T02:10:08;99534.41;;;11.11;68.90
73151;BME280;61354;50.758;6.106;2023-06-04T02:12:36;99532.03;;;10.97;69.31
73151;BME280;61354;50.758;6.106;2023-06-04T02:15:03;99540.59;;;11.04;68.70
73151;BME280;61354;50.758;6.106;2023-06-04T02:17:29;99536.69;;;10.93;68.55
73151;BME280;61354;50.758;6.106;2023-06-04T02:19:58;99536.44;;;10.98;68.10
73151;BME280;61354;50.758;6.106;2023-06-04T02:22:24;99539.69;;;10.88;68.99
73151;BME280;61354;50.758;6.106;2023-06-04T02:24:51;99549.53;;;10.85;69.22
73151;BME280;61354;50.758;6.106;2023-06-04T02:27:16;99547.00;;;10.80;70.25
73151;BME280;61354;50.758;6.106;2023-06-04T02:29:42;99552.22;;;10.69;70.71
73151;BME280;61354;50.758;6.106;2023-06-04T02:32:08;99550.38;;;10.49;71.94
73151;BME280;61354;50.758;6.106;2023-06-04T02:34:34;99553.38;;;10.44;72.16
73151;BME280;61354;50.758;6.106;2023-06-04T02:37:00;99553.06;;;10.45;72.23
73151;BME280;61354;50.758;6.106;2023-06-04T02:39:26;99553.63;;;10.51;71.25
73151;BME280;61354;50.758;6.106;2023-06-04T02:41:52;99555.84;;;10.58;70.73
73151;BME280;61354;50.758;6.106;2023-06-04T02:44:17;99550.59;;;10.56;70.95
73151;BME280;61354;50.758;6.106;2023-06-04T02:46:43;99553.38;;;10.56;70.71
73151;BME280;61354;50.758;6.106;2023-06-04T02:49:09;99549.56;;;10.61;70.50
73151;BME280;61354;50.758;6.106;2023-06-04T02:51:35;99551.28;;;10.53;70.56
73151;BME280;61354;50.758;6.106;2023-06-04T02:54:00;99547.72;;;10.53;71.00
73151;BME280;61354;50.758;6.106;2023-06-04T02:56:26;99549.91;;;10.47;70.89
73151;BME280;61354;50.758;6.106;2023-06-04T02:58:52;99556.16;;;10.56;70.61
73151;BME280;61354;50.758;6.106;2023-06-04T03:01:24;99548.19;;;10.42;70.75
73151;BME280;61354;50.758;6.106;2023-06-04T03:03:49;99551.41;;;10.32;70.13
73151;BME280;61354;50.758;6.106;2023-06-04T03:06:16;99554.41;;;10.39;70.42
73151;BME280;61354;50.758;6.106;2023-06-04T03:08:42;99552.91;;;10.30;70.98
73151;BME280;61354;50.758;6.106;2023-06-04T03:11:08;99552.00;;;10.38;71.06
73151;BME280;61354;50.758;6.106;2023-06-04T03:13:35;99558.00;;;10.28;71.13
73151;BME280;61354;50.758;6.106;2023-06-04T03:16:01;99552.00;;;10.26;71.32
73151;BME280;61354;50.758;6.106;2023-06-04T03:18:28;99558.19;;;10.23;71.47
73151;BME280;61354;50.758;6.106;2023-06-04T03:20:54;99553.13;;;10.12;70.79
73151;BME280;61354;50.758;6.106;2023-06-04T03:23:23;99549.63;;;10.15;70.46
73151;BME280;61354;50.758;6.106;2023-06-04T03:25:48;99551.47;;;10.24;70.93
73151;BME280;61354;50.758;6.106;2023-06-04T03:28:14;99550.22;;;10.21;70.89
73151;BME280;61354;50.758;6.106;2023-06-04T03:30:40;99550.56;;;10.19;70.38
73151;BME280;61354;50.758;6.106;2023-06-04T03:33:07;99552.41;;;10.15;70.89
73151;BME280;61354;50.758;6.106;2023-06-04T03:35:33;99545.34;;;10.06;70.41
73151;BME280;61354;50.758;6.106;2023-06-04T03:37:58;99549.88;;;10.23;70.84
73151;BME280;61354;50.758;6.106;2023-06-04T03:40:24;99555.16;;;10.15;71.13
73151;BME280;61354;50.758;6.106;2023-06-04T03:42:49;99551.94;;;10.13;71.64
73151;BME280;61354;50.758;6.106;2023-06-04T03:45:15;99553.13;;;10.12;71.19
73151;BME280;61354;50.758;6.106;2023-06-04T03:47:41;99555.94;;;10.25;71.04
73151;BME280;61354;50.758;6.106;2023-06-04T03:50:07;99553.16;;;10.25;71.14
73151;BME280;61354;50.758;6.106;2023-06-04T03:52:32;99565.19;;;10.29;71.48
73151;BME280;61354;50.758;6.106;2023-06-04T03:54:58;99561.56;;;10.28;71.20
73151;BME280;61354;50.758;6.106;2023-06-04T03:57:24;99559.13;;;10.14;70.28
73151;BME280;61354;50.758;6.106;2023-06-04T03:59:50;99560.16;;;10.22;70.70
73151;BME280;61354;50.758;6.106;2023-06-04T04:02:15;99559.31;;;9.97;70.86
73151;BME280;61354;50.758;6.106;2023-06-04T04:04:44;99546.84;;;10.15;70.50
73151;BME280;61354;50.758;6.106;2023-06-04T04:07:09;99556.16;;;10.32;70.89
73151;BME280;61354;50.758;6.106;2023-06-04T04:09:36;99554.09;;;10.29;70.16
73151;BME280;61354;50.758;6.106;2023-06-04T04:12:03;99554.09;;;10.29;70.24
73151;BME280;61354;50.758;6.106;2023-06-04T04:14:29;99550.16;;;10.30;70.82
73151;BME280;61354;50.758;6.106;2023-06-04T04:16:54;99549.78;;;10.31;71.30
73151;BME280;61354;50.758;6.106;2023-06-04T04:19:20;99556.88;;;10.41;70.22
73151;BME280;61354;50.758;6.106;2023-06-04T04:21:46;99548.53;;;10.29;71.62
73151;BME280;61354;50.758;6.106;2023-06-04T04:24:27;99550.59;;;10.44;70.68
73151;BME280;61354;50.758;6.106;2023-06-04T04:26:53;99558.25;;;10.47;70.73
73151;BME280;61354;50.758;6.106;2023-06-04T04:29:22;99545.28;;;10.39;71.23
73151;BME280;61354;50.758;6.106;2023-06-04T04:31:53;99553.13;;;10.49;71.71
73151;BME280;61354;50.758;6.106;2023-06-04T04:34:22;99546.91;;;10.52;70.98
73151;BME280;61354;50.758;6.106;2023-06-04T04:36:48;99553.38;;;10.44;72.21
73151;BME280;61354;50.758;6.106;2023-06-04T04:39:23;99559.16;;;10.39;72.36
73151;BME280;61354;50.758;6.106;2023-06-04T04:41:53;99565.41;;;10.36;73.71
73151;BME280;61354;50.758;6.106;2023-06-04T04:44:19;99560.34;;;10.50;73.54
73151;BME280;61354;50.758;6.106;2023-06-04T04:46:45;99566.34;;;10.64;73.88
73151;BME280;61354;50.758;6.106;2023-06-04T04:49:10;99567.38;;;10.72;72.60
73151;BME280;61354;50.758;6.106;2023-06-04T04:51:36;99563.66;;;10.80;72.93
73151;BME280;61354;50.758;6.106;2023-06-04T04:54:02;99568.66;;;10.87;72.41
73151;BME280;61354;50.758;6.106;2023-06-04T04:56:28;99571.88;;;10.89;72.25
73151;BME280;61354;50.758;6.106;2023-06-04T04:58:54;99572.22;;;11.00;72.12
73151;BME280;61354;50.758;6.106;2023-06-04T05:01:20;99565.84;;;10.99;72.49
73151;BME280;61354;50.758;6.106;2023-06-04T05:03:46;99556.56;;;11.07;71.59
73151;BME280;61354;50.758;6.106;2023-06-04T05:06:12;99565.00;;;11.11;71.38
73151;BME280;61354;50.758;6.106;2023-06-04T05:08:38;99565.34;;;11.09;67.53
73151;BME280;61354;50.758;6.106;2023-06-04T05:11:03;99561.63;;;11.17;67.11
73151;BME280;61354;50.758;6.106;2023-06-04T05:13:29;99571.31;;;11.24;68.15
73151;BME280;61354;50.758;6.106;2023-06-04T05:15:54;99571.94;;;11.17;65.00
73151;BME280;61354;50.758;6.106;2023-06-04T05:18:20;99575.34;;;11.38;67.10
73151;BME280;61354;50.758;6.106;2023-06-04T05:20:46;99576.16;;;11.39;64.75
73151;BME280;61354;50.758;6.106;2023-06-04T05:23:12;99572.06;;;11.49;66.83
73151;BME280;61354;50.758;6.106;2023-06-04T05:25:38;99571.88;;;11.41;65.26
73151;BME280;61354;50.758;6.106;2023-06-04T05:28:04;99571.66;;;11.34;65.48
73151;BME280;61354;50.758;6.106;2023-06-04T05:30:32;99570.84;;;11.34;64.34
73151;BME280;61354;50.758;6.106;2023-06-04T05:32:59;99566.16;;;11.50;64.81
73151;BME280;61354;50.758;6.106;2023-06-04T05:35:24;99571.47;;;11.55;63.61
73151;BME280;61354;50.758;6.106;2023-06-04T05:37:50;99581.13;;;11.74;63.71
73151;BME280;61354;50.758;6.106;2023-06-04T05:40:20;99573.53;;;11.58;64.55
73151;BME280;61354;50.758;6.106;2023-06-04T05:42:47;99574.72;;;11.57;63.39
73151;BME280;61354;50.758;6.106;2023-06-04T05:45:13;99580.50;;;11.80;64.21
73151;BME280;61354;50.758;6.106;2023-06-04T05:47:39;99570.84;;;11.90;63.36
73151;BME280;61354;50.758;6.106;2023-06-04T05:50:05;99577.34;;;11.94;63.32
73151;BME280;61354;50.758;6.106;2023-06-04T05:52:32;99589.09;;;11.87;64.20
73151;BME280;61354;50.758;6.106;2023-06-04T05:54:58;99581.91;;;12.02;61.26
73151;BME280;61354;50.758;6.106;2023-06-04T05:57:24;99583.81;;;11.98;60.72
73151;BME280;61354;50.758;6.106;2023-06-04T05:59:50;99582.31;;;12.16;61.92
73151;BME280;61354;50.758;6.106;2023-06-04T06:02:15;99590.22;;;12.30;60.82
73151;BME280;61354;50.758;6.106;2023-06-04T06:04:41;99595.19;;;12.37;61.07
73151;BME280;61354;50.758;6.106;2023-06-04T06:07:07;99595.69;;;12.27;59.82
73151;BME280;61354;50.758;6.106;2023-06-04T06:09:33;99597.97;;;12.37;58.22
73151;BME280;61354;50.758;6.106;2023-06-04T06:11:58;99596.25;;;12.48;60.39
73151;BME280;61354;50.758;6.106;2023-06-04T06:14:24;99600.66;;;12.65;60.97
73151;BME280;61354;50.758;6.106;2023-06-04T06:16:49;99604.88;;;12.75;60.46
73151;BME280;61354;50.758;6.106;2023-06-04T06:19:15;99605.41;;;12.64;59.40
73151;BME280;61354;50.758;6.106;2023-06-04T06:21:42;99603.06;;;12.82;59.20
73151;BME280;61354;50.758;6.106;2023-06-04T06:24:08;99602.50;;;12.92;58.88
73151;BME280;61354;50.758;6.106;2023-06-04T06:26:33;99607.72;;;12.94;58.46
73151;BME280;61354;50.758;6.106;2023-06-04T06:28:59;99601.41;;;12.97;59.50
73151;BME280;61354;50.758;6.106;2023-06-04T06:31:25;99601.75;;;13.11;59.12
73151;BME280;61354;50.758;6.106;2023-06-04T06:33:51;99600.19;;;13.14;57.23
73151;BME280;61354;50.758;6.106;2023-06-04T06:36:17;99597.41;;;13.14;56.64
73151;BME280;61354;50.758;6.106;2023-06-04T06:38:44;99596.16;;;13.27;57.28
73151;BME280;61354;50.758;6.106;2023-06-04T06:41:10;99613.41;;;13.33;56.81
73151;BME280;61354;50.758;6.106;2023-06-04T06:43:36;99609.53;;;13.37;57.16
73151;BME280;61354;50.758;6.106;2023-06-04T06:46:02;99610.91;;;13.47;55.65
73151;BME280;61354;50.758;6.106;2023-06-04T06:48:27;99623.34;;;13.50;55.45
73151;BME280;61354;50.758;6.106;2023-06-04T06:50:54;99616.28;;;13.56;55.52
73151;BME280;61354;50.758;6.106;2023-06-04T06:53:20;99614.31;;;13.76;56.66
73151;BME280;61354;50.758;6.106;2023-06-04T06:55:45;99615.19;;;13.80;55.92
73151;BME280;61354;50.758;6.106;2023-06-04T06:58:11;99617.97;;;13.80;54.99
73151;BME280;61354;50.758;6.106;2023-06-04T07:00:37;99621.72;;;13.87;55.73
73151;BME280;61354;50.758;6.106;2023-06-04T07:03:02;99619.91;;;13.95;56.48
73151;BME280;61354;50.758;6.106;2023-06-04T07:05:29;99619.28;;;14.05;56.16
73151;BME280;61354;50.758;6.106;2023-06-04T07:07:55;99621.56;;;14.19;57.48
73151;BME280;61354;50.758;6.106;2023-06-04T07:10:22;99618.66;;;14.35;56.46
73151;BME280;61354;50.758;6.106;2023-06-04T07:12:48;99609.81;;;14.33;54.77
73151;BME280;61354;50.758;6.106;2023-06-04T07:15:14;99620.44;;;14.47;54.58
73151;BME280;61354;50.758;6.106;2023-06-04T07:17:39;99622.06;;;14.48;55.31
73151;BME280;61354;50.758;6.106;2023-06-04T07:20:06;99618.28;;;14.59;56.13
73151;BME280;61354;50.758;6.106;2023-06-04T07:22:34;99619.56;;;14.62;54.78
73151;BME280;61354;50.758;6.106;2023-06-04T07:24:59;99624.13;;;14.74;54.92
73151;BME280;61354;50.758;6.106;2023-06-04T07:27:25;99622.06;;;14.94;54.79
73151;BME280;61354;50.758;6.106;2023-06-04T07:29:51;99621.34;;;15.00;54.19
73151;BME280;61354;50.758;6.106;2023-06-04T07:32:17;99618.69;;;15.07;52.20
73151;BME280;61354;50.758;6.106;2023-06-04T07:34:42;99615.22;;;15.17;55.14
73151;BME280;61354;50.758;6.106;2023-06-04T07:37:08;99622.66;;;15.33;52.22
73151;BME280;61354;50.758;6.106;2023-06-04T07:39:35;99616.41;;;15.43;53.52
73151;BME280;61354;50.758;6.106;2023-06-04T07:42:00;99626.13;;;15.53;52.25
73151;BME280;61354;50.758;6.106;2023-06-04T07:44:26;99619.78;;;15.56;52.26
73151;BME280;61354;50.758;6.106;2023-06-04T07:46:52;99624.59;;;15.59;50.87
73151;BME280;61354;50.758;6.106;2023-06-04T07:49:17;99621.13;;;15.65;51.34
73151;BME280;61354;50.758;6.106;2023-06-04T07:51:43;99619.34;;;15.84;52.94
73151;BME280;61354;50.758;6.106;2023-06-04T07:54:09;99621.78;;;15.85;49.23
73151;BME280;61354;50.758;6.106;2023-06-04T07:56:35;99620.28;;;15.95;49.72
73151;BME280;61354;50.758;6.106;2023-06-04T07:59:01;99616.47;;;16.10;49.67
73151;BME280;61354;50.758;6.106;2023-06-04T08:01:27;99618.41;;;16.06;51.66
73151;BME280;61354;50.758;6.106;2023-06-04T08:03:52;99614.59;;;16.22;51.80
73151;BME280;61354;50.758;6.106;2023-06-04T08:06:18;99619.84;;;16.27;49.50
73151;BME280;61354;50.758;6.106;2023-06-04T08:08:45;99625.50;;;16.34;47.50
73151;BME280;61354;50.758;6.106;2023-06-04T08:11:11;99613.22;;;16.49;50.68
73151;BME280;61354;50.758;6.106;2023-06-04T08:13:37;99616.19;;;16.63;50.37
73151;BME280;61354;50.758;6.106;2023-06-04T08:16:03;99621.00;;;16.63;47.03
73151;BME280;61354;50.758;6.106;2023-06-04T08:18:28;99626.59;;;16.66;46.52
73151;BME280;61354;50.758;6.106;2023-06-04T08:20:54;99624.38;;;16.83;46.83
73151;BME280;61354;50.758;6.106;2023-06-04T08:23:20;99626.00;;;16.84;46.38
73151;BME280;61354;50.758;6.106;2023-06-04T08:25:45;99625.25;;;16.90;47.66
73151;BME280;61354;50.758;6.106;2023-06-04T08:28:13;99630.84;;;16.90;45.32
73151;BME280;61354;50.758;6.106;2023-06-04T08:30:39;99623.66;;;16.93;46.95
73151;BME280;61354;50.758;6.106;2023-06-04T08:33:05;99630.59;;;17.10;46.95
73151;BME280;61354;50.758;6.106;2023-06-04T08:35:30;99626.16;;;17.05;45.13
73151;BME280;61354;50.758;6.106;2023-06-04T08:37:56;99635.81;;;17.11;45.42
73151;BME280;61354;50.758;6.106;2023-06-04T08:40:22;99625.53;;;17.30;45.35
73151;BME280;61354;50.758;6.106;2023-06-04T08:42:48;99637.56;;;17.30;45.19
73151;BME280;61354;50.758;6.106;2023-06-04T08:45:14;99623.63;;;17.48;44.03
73151;BME280;61354;50.758;6.106;2023-06-04T08:47:46;99625.69;;;17.58;44.30
73151;BME280;61354;50.758;6.106;2023-06-04T08:50:17;99628.91;;;17.60;43.71
73151;BME280;61354;50.758;6.106;2023-06-04T08:52:43;99632.56;;;17.72;44.35
73151;BME280;61354;50.758;6.106;2023-06-04T08:55:11;99628.31;;;17.96;44.04
73151;BME280;61354;50.758;6.106;2023-06-04T08:57:40;99627.47;;;17.92;43.69
73151;BME280;61354;50.758;6.106;2023-06-04T09:00:07;99631.50;;;17.94;43.40
73151;BME280;61354;50.758;6.106;2023-06-04T09:02:35;99633.09;;;17.92;44.84
73151;BME280;61354;50.758;6.106;2023-06-04T09:05:04;99623.47;;;18.03;44.27
73151;BME280;61354;50.758;6.106;2023-06-04T09:07:35;99631.09;;;17.99;41.63
73151;BME280;61354;50.758;6.106;2023-06-04T09:10:01;99623.88;;;17.98;42.93
73151;BME280;61354;50.758;6.106;2023-06-04T09:12:27;99633.53;;;18.04;43.21
73151;BME280;61354;50.758;6.106;2023-06-04T09:14:54;99627.09;;;18.04;42.63
73151;BME280;61354;50.758;6.106;2023-06-04T09:17:27;99629.94;;;18.14;42.64
73151;BME280;61354;50.758;6.106;2023-06-04T09:19:52;99619.13;;;18.20;43.70
73151;BME280;61354;50.758;6.106;2023-06-04T09:22:18;99620.34;;;18.26;43.37
73151;BME280;61354;50.758;6.106;2023-06-04T09:24:47;99619.56;;;18.36;40.60
73151;BME280;61354;50.758;6.106;2023-06-04T09:27:18;99625.97;;;18.37;42.73
73151;BME280;61354;50.758;6.106;2023-06-04T09:29:57;99624.38;;;18.29;42.30
73151;BME280;61354;50.758;6.106;2023-06-04T09:32:29;99625.22;;;18.47;42.25
73151;BME280;61354;50.758;6.106;2023-06-04T09:35:08;99617.56;;;18.41;39.33
73151;BME280;61354;50.758;6.106;2023-06-04T09:37:35;99622.41;;;18.47;39.90
73151;BME280;61354;50.758;6.106;2023-06-04T09:40:01;99626.44;;;18.68;41.94
73151;BME280;61354;50.758;6.106;2023-06-04T09:42:26;99629.25;;;18.68;40.51
73151;BME280;61354;50.758;6.106;2023-06-04T09:44:52;99628.03;;;18.65;40.79
73151;BME280;61354;50.758;6.106;2023-06-04T09:47:17;99623.25;;;18.80;37.90
73151;BME280;61354;50.758;6.106;2023-06-04T09:49:49;99624.06;;;18.84;38.91
73151;BME280;61354;50.758;6.106;2023-06-04T09:52:16;99622.84;;;18.92;38.35
73151;BME280;61354;50.758;6.106;2023-06-04T09:54:42;99635.72;;;19.00;39.43
73151;BME280;61354;50.758;6.106;2023-06-04T09:57:16;99620.81;;;19.10;39.52
73151;BME280;61354;50.758;6.106;2023-06-04T09:59:44;99628.47;;;19.17;39.95
73151;BME280;61354;50.758;6.106;2023-06-04T10:02:19;99628.47;;;19.17;38.41
73151;BME280;61354;50.758;6.106;2023-06-04T10:04:49;99629.69;;;19.05;38.49
73151;BME280;61354;50.758;6.106;2023-06-04T10:07:14;99627.66;;;18.95;38.54
73151;BME280;61354;50.758;6.106;2023-06-04T10:09:43;99635.72;;;18.97;39.00
73151;BME280;61354;50.758;6.106;2023-06-04T10:12:14;99625.22;;;19.15;39.56
73151;BME280;61354;50.758;6.106;2023-06-04T10:14:48;99630.88;;;19.26;38.42
73151;BME280;61354;50.758;6.106;2023-06-04T10:17:17;99627.63;;;19.38;37.59
73151;BME280;61354;50.758;6.106;2023-06-04T10:19:45;99623.53;;;19.57;37.63
73151;BME280;61354;50.758;6.106;2023-06-04T10:22:11;99628.41;;;19.42;36.91
73151;BME280;61354;50.758;6.106;2023-06-04T10:24:38;99619.53;;;19.58;37.44
73151;BME280;61354;50.758;6.106;2023-06-04T10:27:04;99623.97;;;19.48;37.52
73151;BME280;61354;50.758;6.106;2023-06-04T10:29:36;99609.88;;;19.52;39.99
73151;BME280;61354;50.758;6.106;2023-06-04T10:32:02;99617.88;;;19.60;39.50
73151;BME280;61354;50.758;6.106;2023-06-04T10:34:28;99610.25;;;19.72;37.93
73151;BME280;61354;50.758;6.106;2023-06-04T10:36:55;99613.09;;;19.57;36.37
73151;BME280;61354;50.758;6.106;2023-06-04T10:39:27;99614.63;;;19.80;38.11
73151;BME280;61354;50.758;6.106;2023-06-04T10:42:04;99610.56;;;19.92;40.45
73151;BME280;61354;50.758;6.106;2023-06-04T10:44:43;99610.97;;;19.90;39.36
73151;BME280;61354;50.758;6.106;2023-06-04T10:47:21;99605.75;;;19.81;38.27
73151;BME280;61354;50.758;6.106;2023-06-04T10:49:47;99611.38;;;19.92;41.17
73151;BME280;61354;50.758;6.106;2023-06-04T10:52:13;99611.28;;;20.06;40.51
73151;BME280;61354;50.758;6.106;2023-06-04T10:54:38;99616.09;;;20.09;38.98
73151;BME280;61354;50.758;6.106;2023-06-04T10:57:12;99616.09;;;20.09;38.16
73151;BME280;61354;50.758;6.106;2023-06-04T10:59:37;99616.09;;;20.09;36.85
73151;BME280;61354;50.758;6.106;2023-06-04T11:02:05;99625.75;;;20.16;38.52
73151;BME280;61354;50.758;6.106;2023-06-04T11:04:31;99618.81;;;20.31;37.94
73151;BME280;61354;50.758;6.106;2023-06-04T11:07:00;99618.88;;;20.24;36.82
73151;BME280;61354;50.758;6.106;2023-06-04T11:09:27;99607.06;;;20.36;40.89
73151;BME280;61354;50.758;6.106;2023-06-04T11:11:59;99602.16;;;20.47;41.11
73151;BME280;61354;50.758;6.106;2023-06-04T11:14:25;99601.44;;;20.36;38.25
73151;BME280;61354;50.758;6.106;2023-06-04T11:16:51;99603.84;;;20.41;37.49
73151;BME280;61354;50.758;6.106;2023-06-04T11:19:17;99600.06;;;19.99;34.86
73151;BME280;61354;50.758;6.106;2023-06-04T11:21:43;99595.69;;;20.57;37.52
73151;BME280;61354;50.758;6.106;2023-06-04T11:24:12;99598.44;;;20.65;38.37
73151;BME280;61354;50.758;6.106;2023-06-04T11:26:38;99591.69;;;20.48;35.02
73151;BME280;61354;50.758;6.106;2023-06-04T11:29:11;99595.69;;;20.57;36.32
73151;BME280;61354;50.758;6.106;2023-06-04T11:31:45;99599.16;;;20.76;37.76
73151;BME280;61354;50.758;6.106;2023-06-04T11:34:22;99593.78;;;20.92;35.16
73151;BME280;61354;50.758;6.106;2023-06-04T11:36:47;99593.84;;;20.85;35.49
73151;BME280;61354;50.758;6.106;2023-06-04T11:39:15;99596.53;;;20.54;35.27
73151;BME280;61354;50.758;6.106;2023-06-04T11:41:41;99596.41;;;20.69;35.23
73151;BME280;61354;50.758;6.106;2023-06-04T11:44:07;99594.59;;;20.93;36.50
73151;BME280;61354;50.758;6.106;2023-06-04T11:46:35;99594.63;;;20.89;35.93
73151;BME280;61354;50.758;6.106;2023-06-04T11:49:02;99596.56;;;20.99;38.52
73151;BME280;61354;50.758;6.106;2023-06-04T11:51:28;99590.34;;;21.15;36.41
73151;BME280;61354;50.758;6.106;2023-06-04T11:53:54;99595.69;;;21.02;34.83
73151;BME280;61354;50.758;6.106;2023-06-04T11:56:21;99595.41;;;21.31;38.25
73151;BME280;61354;50.758;6.106;2023-06-04T11:58:47;99590.22;;;21.26;35.08
73151;BME280;61354;50.758;6.106;2023-06-04T12:01:13;99588.59;;;21.32;36.48
73151;BME280;61354;50.758;6.106;2023-06-04T12:03:42;99584.84;;;21.42;37.68
73151;BME280;61354;50.758;6.106;2023-06-04T12:06:19;99580.28;;;21.52;35.25
73151;BME280;61354;50.758;6.106;2023-06-04T12:08:53;99582.31;;;21.51;35.53
73151;BME280;61354;50.758;6.106;2023-06-04T12:11:30;99577.09;;;21.50;35.35
73151;BME280;61354;50.758;6.106;2023-06-04T12:14:06;99575.28;;;21.67;37.68
73151;BME280;61354;50.758;6.106;2023-06-04T12:16:33;99581.69;;;21.71;36.82
73151;BME280;61354;50.758;6.106;2023-06-04T12:19:09;99580.16;;;21.63;35.51
73151;BME280;61354;50.758;6.106;2023-06-04T12:21:36;99571.13;;;21.75;35.68
73151;BME280;61354;50.758;6.106;2023-06-04T12:24:12;99569.03;;;21.48;34.67
73151;BME280;61354;50.758;6.106;2023-06-04T12:26:41;99571.72;;;21.21;35.07
73151;BME280;61354;50.758;6.106;2023-06-04T12:29:11;99558.78;;;21.24;34.85
73151;BME280;61354;50.758;6.106;2023-06-04T12:31:38;99566.59;;;21.50;35.34
73151;BME280;61354;50.758;6.106;2023-06-04T12:34:04;99561.91;;;21.71;35.18
73151;BME280;61354;50.758;6.106;2023-06-04T12:36:29;99569.72;;;21.90;36.61
73151;BME280;61354;50.758;6.106;2023-06-04T12:38:59;99568.78;;;21.70;34.49
73151;BME280;61354;50.758;6.106;2023-06-04T12:41:29;99565.47;;;21.75;33.59
73151;BME280;61354;50.758;6.106;2023-06-04T12:43:55;99572.44;;;21.67;35.34
73151;BME280;61354;50.758;6.106;2023-06-04T12:46:21;99567.06;;;21.76;34.47
73151;BME280;61354;50.758;6.106;2023-06-04T12:48:48;99563.44;;;21.75;35.37
73151;BME280;61354;50.758;6.106;2023-06-04T12:51:13;99565.91;;;22.04;34.02
73151;BME280;61354;50.758;6.106;2023-06-04T12:53:40;99567.06;;;22.06;35.23
73151;BME280;61354;50.758;6.106;2023-06-04T12:56:06;99570.13;;;21.89;33.94
73151;BME280;61354;50.758;6.106;2023-06-04T12:58:32;99561.50;;;21.69;32.80
73151;BME280;61354;50.758;6.106;2023-06-04T13:00:57;99560.94;;;21.81;32.93
73151;BME280;61354;50.758;6.106;2023-06-04T13:03:23;99558.13;;;22.12;33.44